createdAt,value
2017-08-13T00:01:28.443Z,2.15
2017-08-13T00:03:56.105Z,1.83
2017-08-13T00:06:23.735Z,2.12
2017-08-13T00:08:51.372Z,2.20
2017-08-13T00:11:19.139Z,2.20
2017-08-13T00:13:46.768Z,1.77
2017-08-13T00:16:14.437Z,2.00
2017-08-13T00:18:42.067Z,2.10
2017-08-13T00:21:09.864Z,1.80
2017-08-13T00:23:37.614Z,2.45
2017-08-13T00:26:05.261Z,1.92
2017-08-13T00:28:32.928Z,2.33
2017-08-13T00:31:00.674Z,2.50
2017-08-13T00:33:28.329Z,3.22
2017-08-13T00:35:56.756Z,3.30
2017-08-13T00:38:24.393Z,2.58
2017-08-13T00:40:52.069Z,3.10
2017-08-13T00:43:19.850Z,2.78
2017-08-13T00:45:48.263Z,2.50
2017-08-13T00:48:15.940Z,3.10
2017-08-13T00:50:43.582Z,2.25
2017-08-13T00:53:11.248Z,2.40
2017-08-13T00:55:39.677Z,2.55
2017-08-13T00:58:07.332Z,2.67
2017-08-13T01:00:34.992Z,2.85
2017-08-13T01:03:02.786Z,2.40
2017-08-13T01:05:30.457Z,2.20
2017-08-13T01:07:58.132Z,3.40
2017-08-13T01:10:25.818Z,2.55
2017-08-13T01:12:53.505Z,3.12
2017-08-13T01:15:21.154Z,3.00
2017-08-13T01:17:48.815Z,3.50
2017-08-13T01:20:16.445Z,3.15
2017-08-13T01:22:44.096Z,2.90
2017-08-13T01:25:11.753Z,3.12
2017-08-13T01:27:39.567Z,3.28
2017-08-13T01:30:07.223Z,2.85
2017-08-13T01:32:34.855Z,2.75
2017-08-13T01:35:11.536Z,2.65
2017-08-13T01:37:39.175Z,2.60
2017-08-13T01:40:06.800Z,2.15
2017-08-13T01:42:34.465Z,3.05
2017-08-13T01:45:02.109Z,2.83
2017-08-13T01:47:29.962Z,2.70
2017-08-13T01:49:57.602Z,2.70
2017-08-13T01:52:25.280Z,2.22
2017-08-13T01:54:52.936Z,2.00
2017-08-13T01:57:20.668Z,4.00
2017-08-13T01:59:48.347Z,2.30
2017-08-13T02:02:16.765Z,3.03
2017-08-13T02:04:44.460Z,2.53
2017-08-13T02:07:12.917Z,2.85
2017-08-13T02:09:40.680Z,2.40
2017-08-13T02:12:09.166Z,2.33
2017-08-13T02:14:36.825Z,3.22
2017-08-13T02:17:04.457Z,2.70
2017-08-13T02:19:32.130Z,2.80
2017-08-13T02:21:59.969Z,2.67
2017-08-13T02:24:27.637Z,3.12
2017-08-13T02:26:55.265Z,2.87
2017-08-13T02:29:22.904Z,2.90
2017-08-13T02:31:50.600Z,2.37
2017-08-13T02:34:18.268Z,2.53
2017-08-13T02:36:46.696Z,2.62
2017-08-13T02:39:14.345Z,2.37
2017-08-13T02:41:42.026Z,2.70
2017-08-13T02:44:09.701Z,2.33
2017-08-13T02:46:37.325Z,2.28
2017-08-13T02:49:05.751Z,2.30
2017-08-13T02:51:33.395Z,2.28
2017-08-13T02:54:01.064Z,2.80
2017-08-13T02:56:28.750Z,2.50
2017-08-13T02:58:56.373Z,2.35
2017-08-13T03:01:24.044Z,2.55
2017-08-13T03:03:51.683Z,2.55
2017-08-13T03:06:19.317Z,2.70
2017-08-13T03:08:46.980Z,2.15
2017-08-13T03:11:14.617Z,2.58
2017-08-13T03:13:42.295Z,2.25
2017-08-13T03:16:10.028Z,2.33
2017-08-13T03:18:37.648Z,2.33
2017-08-13T03:21:05.304Z,2.75
2017-08-13T03:23:33.707Z,2.37
2017-08-13T03:26:01.385Z,2.80
2017-08-13T03:28:29.156Z,2.20
2017-08-13T03:30:57.586Z,2.30
2017-08-13T03:33:25.246Z,2.95
2017-08-13T03:35:52.885Z,2.67
2017-08-13T03:38:20.620Z,2.22
2017-08-13T03:40:48.265Z,3.40
2017-08-13T03:43:15.906Z,2.30
2017-08-13T03:45:43.633Z,2.70
2017-08-13T03:48:11.295Z,2.70
2017-08-13T03:50:39.013Z,2.25
2017-08-13T03:53:06.748Z,2.50
2017-08-13T03:55:34.389Z,3.08
2017-08-13T03:58:02.049Z,2.65
2017-08-13T04:00:30.452Z,1.92
2017-08-13T04:02:58.112Z,2.83
2017-08-13T04:05:25.764Z,2.72
2017-08-13T04:07:53.409Z,2.50
2017-08-13T04:10:21.097Z,2.53
2017-08-13T04:12:49.556Z,3.20
2017-08-13T04:15:17.234Z,3.20
2017-08-13T04:17:44.953Z,2.60
2017-08-13T04:20:12.598Z,2.72
2017-08-13T04:22:40.269Z,2.70
2017-08-13T04:25:07.913Z,2.22
2017-08-13T04:27:35.584Z,2.78
2017-08-13T04:30:03.218Z,3.05
2017-08-13T04:32:30.905Z,2.37
2017-08-13T04:34:58.589Z,3.00
2017-08-13T04:37:26.997Z,2.97
2017-08-13T04:39:54.673Z,2.55
2017-08-13T04:42:22.312Z,2.70
2017-08-13T04:44:50.070Z,2.95
2017-08-13T04:47:17.747Z,2.65
2017-08-13T04:49:45.383Z,2.42
2017-08-13T04:52:13.820Z,2.33
2017-08-13T04:54:42.643Z,2.30
2017-08-13T04:57:10.282Z,1.98
2017-08-13T04:59:37.963Z,2.37
2017-08-13T05:02:05.606Z,2.78
2017-08-13T05:04:33.296Z,2.75
2017-08-13T05:07:01.014Z,2.22
2017-08-13T05:09:28.650Z,3.78
2017-08-13T05:11:56.311Z,3.25
2017-08-13T05:14:23.949Z,2.92
2017-08-13T05:16:51.619Z,2.30
2017-08-13T05:19:19.257Z,2.50
2017-08-13T05:21:46.897Z,2.30
2017-08-13T05:24:14.577Z,2.00
2017-08-13T05:26:42.216Z,1.90
2017-08-13T05:29:09.991Z,2.10
2017-08-13T05:31:38.401Z,2.20
2017-08-13T05:34:06.041Z,2.60
2017-08-13T05:36:33.712Z,2.00
2017-08-13T05:39:01.346Z,1.95
2017-08-13T05:41:29.051Z,2.20
2017-08-13T05:43:56.740Z,2.08
2017-08-13T05:46:24.379Z,2.00
2017-08-13T05:48:52.055Z,2.03
2017-08-13T05:51:19.713Z,1.92
2017-08-13T05:53:47.390Z,1.85
2017-08-13T05:56:15.041Z,2.17
2017-08-13T05:58:42.701Z,2.28
2017-08-13T06:01:10.363Z,3.37
2017-08-13T06:03:39.861Z,2.20
2017-08-13T06:06:07.525Z,2.15
2017-08-13T06:08:35.164Z,2.05
2017-08-13T06:11:02.805Z,2.00
2017-08-13T06:13:30.796Z,2.17
2017-08-13T06:15:59.667Z,2.10
2017-08-13T06:18:27.334Z,1.73
2017-08-13T06:20:54.963Z,1.92
2017-08-13T06:23:23.377Z,1.80
2017-08-13T06:25:51.046Z,2.58
2017-08-13T06:28:18.685Z,4.35
2017-08-13T06:30:48.004Z,2.00
2017-08-13T06:33:15.614Z,2.50
2017-08-13T06:35:43.297Z,2.30
2017-08-13T06:38:10.974Z,2.30
2017-08-13T06:40:41.411Z,1.70
2017-08-13T06:43:09.105Z,1.73
2017-08-13T06:45:36.720Z,2.40
2017-08-13T06:48:04.629Z,2.43
2017-08-13T06:50:33.044Z,2.67
2017-08-13T06:53:00.660Z,1.70
2017-08-13T06:55:28.303Z,1.63
2017-08-13T06:57:55.917Z,1.67
2017-08-13T07:00:23.962Z,1.73
2017-08-13T07:02:51.616Z,1.53
2017-08-13T07:05:19.220Z,1.70
2017-08-13T07:07:46.864Z,1.60
2017-08-13T07:10:14.459Z,1.40
2017-08-13T07:12:42.846Z,1.67
2017-08-13T07:15:11.260Z,1.77
2017-08-13T07:17:38.877Z,2.03
2017-08-13T07:20:06.583Z,2.00
2017-08-13T07:22:34.189Z,1.77
2017-08-13T07:25:01.814Z,1.83
2017-08-13T07:27:29.658Z,1.97
2017-08-13T07:29:57.283Z,3.80
2017-08-13T07:32:25.697Z,2.23
2017-08-13T07:34:53.317Z,2.00
2017-08-13T07:37:20.955Z,2.80
2017-08-13T07:39:48.636Z,1.73
2017-08-13T07:42:16.261Z,2.20
2017-08-13T07:44:43.921Z,2.30
2017-08-13T07:47:12.033Z,1.60
2017-08-13T07:49:40.526Z,1.50
2017-08-13T07:52:08.238Z,1.60
2017-08-13T07:54:36.655Z,1.60
2017-08-13T07:57:04.327Z,1.90
2017-08-13T07:59:31.948Z,1.83
2017-08-13T08:01:59.642Z,2.03
2017-08-13T08:04:27.283Z,1.73
2017-08-13T08:06:54.910Z,1.90
2017-08-13T08:09:22.553Z,2.00
2017-08-13T08:11:50.169Z,1.60
2017-08-13T08:14:17.790Z,1.50
2017-08-13T08:16:46.206Z,1.43
2017-08-13T08:19:13.826Z,2.27
2017-08-13T08:21:41.478Z,1.57
2017-08-13T08:24:09.122Z,1.70
2017-08-13T08:26:36.744Z,2.87
2017-08-13T08:29:05.147Z,1.90
2017-08-13T08:31:32.766Z,1.93
2017-08-13T08:34:00.469Z,2.33
2017-08-13T08:36:28.093Z,1.97
2017-08-13T08:38:55.775Z,2.33
2017-08-13T08:41:23.404Z,2.37
2017-08-13T08:43:51.008Z,2.70
2017-08-13T08:46:18.639Z,3.30
2017-08-13T08:48:46.273Z,2.70
2017-08-13T08:51:13.881Z,2.50
2017-08-13T08:53:41.511Z,2.30
2017-08-13T08:56:09.142Z,2.13
2017-08-13T08:58:36.795Z,2.80
2017-08-13T09:01:04.418Z,2.87
2017-08-13T09:03:32.788Z,3.10
2017-08-13T09:06:00.411Z,3.77
2017-08-13T09:08:28.784Z,3.50
2017-08-13T09:10:57.197Z,3.30
2017-08-13T09:13:24.849Z,3.50
2017-08-13T09:15:52.501Z,4.23
2017-08-13T09:18:20.131Z,3.50
2017-08-13T09:20:47.736Z,3.57
2017-08-13T09:23:15.383Z,3.27
2017-08-13T09:25:43.751Z,3.17
2017-08-13T09:28:11.360Z,3.40
2017-08-13T09:30:39.007Z,2.53
2017-08-13T09:33:06.675Z,3.10
2017-08-13T09:35:34.318Z,2.77
2017-08-13T09:38:04.352Z,1.80
2017-08-13T09:40:31.953Z,1.43
2017-08-13T09:45:33.406Z,1.00
2017-08-13T09:48:01.813Z,1.07
2017-08-13T09:50:29.617Z,1.10
2017-08-13T09:52:57.230Z,1.03
2017-08-13T09:55:24.876Z,0.90
2017-08-13T09:57:52.488Z,1.37
2017-08-13T10:00:20.152Z,1.10
2017-08-13T10:02:47.756Z,1.17
2017-08-13T10:05:16.132Z,1.10
2017-08-13T10:07:43.771Z,1.50
2017-08-13T10:10:12.163Z,1.47
2017-08-13T10:12:39.993Z,1.30
2017-08-13T10:15:07.611Z,1.50
2017-08-13T10:17:35.224Z,1.83
2017-08-13T10:20:02.873Z,1.50
2017-08-13T10:22:30.506Z,2.60
2017-08-13T10:24:58.153Z,1.53
2017-08-13T10:27:25.764Z,1.87
2017-08-13T10:29:54.135Z,1.33
2017-08-13T10:32:21.772Z,1.50
2017-08-13T10:34:50.144Z,1.87
2017-08-13T10:37:18.555Z,1.33
2017-08-13T10:39:46.169Z,1.47
2017-08-13T10:42:13.793Z,1.90
2017-08-13T10:44:42.228Z,1.40
2017-08-13T10:47:09.873Z,1.80
2017-08-13T10:49:37.581Z,2.73
2017-08-13T10:52:05.211Z,1.80
2017-08-13T10:54:32.825Z,1.80
2017-08-13T10:57:00.459Z,1.70
2017-08-13T10:59:28.091Z,1.33
2017-08-13T11:01:55.745Z,1.33
2017-08-13T11:04:23.360Z,1.40
2017-08-13T11:06:51.008Z,1.77
2017-08-13T11:09:18.649Z,1.10
2017-08-13T11:11:46.256Z,1.40
2017-08-13T11:14:13.956Z,1.50
2017-08-13T11:16:41.586Z,1.10
2017-08-13T11:19:09.201Z,1.10
2017-08-13T11:21:36.844Z,1.00
2017-08-13T11:24:04.461Z,1.07
2017-08-13T11:26:32.096Z,1.53
2017-08-13T11:28:59.730Z,1.70
2017-08-13T11:31:27.358Z,1.50
2017-08-13T11:33:56.048Z,1.50
2017-08-13T11:36:23.740Z,1.83
2017-08-13T11:38:51.660Z,2.10
2017-08-13T11:41:19.377Z,2.33
2017-08-13T11:43:47.858Z,2.50
2017-08-13T11:46:15.522Z,2.20
2017-08-13T11:48:43.143Z,2.53
2017-08-13T11:51:11.013Z,2.67
2017-08-13T11:53:38.627Z,2.23
2017-08-13T11:58:40.973Z,2.73
2017-08-13T12:01:09.613Z,2.60
2017-08-13T12:03:37.270Z,2.07
2017-08-13T12:06:04.940Z,1.97
2017-08-13T12:08:32.562Z,2.60
2017-08-13T12:11:00.211Z,2.47
2017-08-13T12:13:27.881Z,3.00
2017-08-13T12:15:56.296Z,3.40
2017-08-13T12:18:36.568Z,3.37
2017-08-13T12:21:09.800Z,3.30
2017-08-13T12:23:37.456Z,4.20
2017-08-13T12:26:05.067Z,4.33
2017-08-13T12:28:33.475Z,3.40
2017-08-13T12:31:01.110Z,3.07
2017-08-13T12:33:28.781Z,4.07
2017-08-13T12:35:56.388Z,3.90
2017-08-13T12:38:23.996Z,3.30
2017-08-13T12:40:51.635Z,4.37
2017-08-13T12:43:19.255Z,3.60
2017-08-13T12:45:46.952Z,3.10
2017-08-13T12:48:15.324Z,3.30
2017-08-13T12:50:42.946Z,5.50
2017-08-13T12:53:10.694Z,4.07
2017-08-13T12:55:39.118Z,3.43
2017-08-13T12:58:06.772Z,3.87
2017-08-13T13:00:34.389Z,3.47
2017-08-13T13:03:01.998Z,4.40
2017-08-13T13:05:29.651Z,3.67
2017-08-13T13:07:58.051Z,4.37
2017-08-13T13:10:26.611Z,4.73
2017-08-13T13:12:54.230Z,3.33
2017-08-13T13:15:22.611Z,4.37
2017-08-13T13:17:50.248Z,3.87
2017-08-13T13:20:18.636Z,4.43
2017-08-13T13:22:46.295Z,3.47
2017-08-13T13:25:13.913Z,4.00
2017-08-13T13:27:41.518Z,4.50
2017-08-13T13:30:09.160Z,3.70
2017-08-13T13:32:36.777Z,5.10
2017-08-13T13:35:04.456Z,5.10
2017-08-13T13:37:32.068Z,3.90
2017-08-13T13:39:59.781Z,4.80
2017-08-13T13:42:28.177Z,5.60
2017-08-13T13:44:55.791Z,5.07
2017-08-13T13:47:24.251Z,3.90
2017-08-13T13:49:52.608Z,5.00
2017-08-13T13:52:21.019Z,5.00
2017-08-13T13:54:48.665Z,5.30
2017-08-13T13:57:16.302Z,3.93
2017-08-13T13:59:43.966Z,4.23
2017-08-13T14:02:11.581Z,4.40
2017-08-13T14:04:39.244Z,3.83
2017-08-13T14:07:06.884Z,4.10
2017-08-13T14:09:34.582Z,3.67
2017-08-13T14:12:02.226Z,4.47
2017-08-13T14:14:29.865Z,3.87
2017-08-13T14:16:57.490Z,4.23
2017-08-13T14:19:25.132Z,3.00
2017-08-13T14:21:52.744Z,3.77
2017-08-13T14:24:26.172Z,2.80
2017-08-13T14:26:53.794Z,3.67
2017-08-13T14:29:21.398Z,4.03
2017-08-13T14:31:49.054Z,4.53
2017-08-13T14:34:16.727Z,3.40
2017-08-13T14:36:44.390Z,3.33
2017-08-13T14:39:11.992Z,3.00
2017-08-13T14:41:39.627Z,2.93
2017-08-13T14:44:07.268Z,3.20
2017-08-13T14:46:34.880Z,2.80
2017-08-13T14:49:02.540Z,3.00
2017-08-13T14:51:30.156Z,3.47
2017-08-13T14:53:57.780Z,3.10
2017-08-13T14:56:25.420Z,3.50
2017-08-13T14:58:53.032Z,3.97
2017-08-13T15:01:20.693Z,3.50
2017-08-13T15:03:48.310Z,4.27
2017-08-13T15:06:15.924Z,3.47
2017-08-13T15:08:43.577Z,3.50
2017-08-13T15:11:11.202Z,3.37
2017-08-13T15:13:39.688Z,3.43
2017-08-13T15:16:07.323Z,3.40
2017-08-13T15:18:35.696Z,3.87
2017-08-13T15:21:03.345Z,4.50
2017-08-13T15:23:31.028Z,4.33
2017-08-13T15:25:58.681Z,4.07
2017-08-13T15:28:26.303Z,4.17
2017-08-13T15:30:53.918Z,3.80
2017-08-13T15:33:22.320Z,3.97
2017-08-13T15:35:49.992Z,3.80
2017-08-13T15:38:17.638Z,4.03
2017-08-13T15:40:45.287Z,2.60
2017-08-13T15:43:12.895Z,3.97
2017-08-13T15:45:40.536Z,4.30
2017-08-13T15:48:08.153Z,3.80
2017-08-13T15:50:35.805Z,4.00
2017-08-13T15:53:04.179Z,3.50
2017-08-13T15:55:31.817Z,3.70
2017-08-13T15:57:59.475Z,3.50
2017-08-13T16:00:27.078Z,3.40
2017-08-13T16:02:54.742Z,4.30
2017-08-13T16:05:23.128Z,4.90
2017-08-13T16:07:50.735Z,4.93
2017-08-13T16:10:18.383Z,3.67
2017-08-13T16:12:46.017Z,3.07
2017-08-13T16:15:13.676Z,3.67
2017-08-13T16:17:41.283Z,3.63
2017-08-13T16:20:08.910Z,3.27
2017-08-13T16:22:36.610Z,3.07
2017-08-13T16:25:04.228Z,3.17
2017-08-13T16:27:31.869Z,3.70
2017-08-13T16:29:59.500Z,3.63
2017-08-13T16:32:27.125Z,3.53
2017-08-13T16:34:55.536Z,3.57
2017-08-13T16:37:23.183Z,3.07
2017-08-13T16:39:50.833Z,3.60
2017-08-13T16:42:18.479Z,3.63
2017-08-13T16:44:46.094Z,3.53
2017-08-13T16:47:13.751Z,3.03
2017-08-13T16:49:41.364Z,3.50
2017-08-13T16:52:09.022Z,3.30
2017-08-13T16:54:36.633Z,3.60
2017-08-13T16:57:04.248Z,2.73
2017-08-13T16:59:31.890Z,3.20
2017-08-13T17:01:59.529Z,2.67
2017-08-13T17:04:27.190Z,2.83
2017-08-13T17:06:54.870Z,2.50
2017-08-13T17:09:22.554Z,2.33
2017-08-13T17:11:50.232Z,2.30
2017-08-13T17:14:17.861Z,2.50
2017-08-13T17:16:45.525Z,2.87
2017-08-13T17:19:13.152Z,2.90
2017-08-13T17:21:40.778Z,2.97
2017-08-13T17:24:08.424Z,3.00
2017-08-13T17:26:36.822Z,2.40
2017-08-13T17:29:04.481Z,3.00
2017-08-13T17:31:32.180Z,2.70
2017-08-13T17:34:00.584Z,2.80
2017-08-13T17:36:28.327Z,2.40
2017-08-13T17:38:55.930Z,2.87
2017-08-13T17:41:24.474Z,2.90
2017-08-13T17:43:52.099Z,3.03
2017-08-13T17:46:19.776Z,3.30
2017-08-13T17:48:47.622Z,2.97
2017-08-13T17:51:15.340Z,3.50
2017-08-13T17:53:43.091Z,2.90
2017-08-13T17:56:10.760Z,3.47
2017-08-13T17:58:39.197Z,3.05
2017-08-13T18:01:06.873Z,2.33
2017-08-13T18:03:35.324Z,2.75
2017-08-13T18:06:03.190Z,3.35
2017-08-13T18:08:30.820Z,3.17
2017-08-13T18:10:58.448Z,3.45
2017-08-13T18:13:26.120Z,3.80
2017-08-13T18:15:53.765Z,3.40
2017-08-13T18:18:21.456Z,3.17
2017-08-13T18:20:49.184Z,3.85
2017-08-13T18:23:16.859Z,3.85
2017-08-13T18:25:44.545Z,3.55
2017-08-13T18:28:12.180Z,3.20
2017-08-13T18:30:39.970Z,3.65
2017-08-13T18:33:08.364Z,4.45
2017-08-13T18:35:36.198Z,4.05
2017-08-13T18:38:03.879Z,4.10
2017-08-13T18:40:31.602Z,5.00
2017-08-13T18:42:59.396Z,4.82
2017-08-13T18:45:27.054Z,4.10
2017-08-13T18:47:54.721Z,5.28
2017-08-13T18:50:23.152Z,3.45
2017-08-13T18:52:50.779Z,3.70
2017-08-13T18:55:18.448Z,4.25
2017-08-13T18:57:46.076Z,3.72
2017-08-13T19:00:13.714Z,4.20
2017-08-13T19:02:41.389Z,5.35
2017-08-13T19:05:09.218Z,3.75
2017-08-13T19:07:36.901Z,4.65
2017-08-13T19:10:04.622Z,5.18
2017-08-13T19:12:32.248Z,4.72
2017-08-13T19:14:59.932Z,3.80
2017-08-13T19:17:27.580Z,4.68
2017-08-13T19:19:55.256Z,4.70
2017-08-13T19:22:23.772Z,5.72
2017-08-13T19:24:51.414Z,5.32
2017-08-13T19:27:19.107Z,4.68
2017-08-13T19:29:47.521Z,5.10
2017-08-13T19:32:15.206Z,5.60
2017-08-13T19:34:42.869Z,4.72
2017-08-13T19:37:10.488Z,5.37
2017-08-13T19:39:38.169Z,6.55
2017-08-13T19:42:06.603Z,5.87
2017-08-13T19:44:34.270Z,6.43
2017-08-13T19:47:01.954Z,6.10
2017-08-13T19:49:29.603Z,6.65
2017-08-13T19:51:57.286Z,5.50
2017-08-13T19:54:24.912Z,4.97
2017-08-13T19:56:52.637Z,5.37
2017-08-13T19:59:20.294Z,6.15
2017-08-13T20:01:47.991Z,5.65
2017-08-13T20:04:15.670Z,5.65
2017-08-13T20:06:44.071Z,4.97
2017-08-13T20:09:11.741Z,6.05
2017-08-13T20:11:39.385Z,5.62
2017-08-13T20:14:07.015Z,4.95
2017-08-13T20:16:34.683Z,6.07
2017-08-13T20:19:02.322Z,5.57
2017-08-13T20:21:29.975Z,6.93
2017-08-13T20:23:57.644Z,6.07
2017-08-13T20:26:26.072Z,6.00
2017-08-13T20:28:53.721Z,5.72
2017-08-13T20:31:21.360Z,6.68
2017-08-13T20:33:49.021Z,5.53
2017-08-13T20:36:16.656Z,6.00
2017-08-13T20:38:44.276Z,5.62
2017-08-13T20:41:11.930Z,5.07
2017-08-13T20:43:39.573Z,5.20
2017-08-13T20:46:07.238Z,5.40
2017-08-13T20:48:34.900Z,5.62
2017-08-13T20:51:03.305Z,5.22
2017-08-13T20:53:31.726Z,5.32
2017-08-13T20:55:59.365Z,5.43
2017-08-13T20:58:27.050Z,5.85
2017-08-13T21:00:54.681Z,5.03
2017-08-13T21:03:22.317Z,6.15
2017-08-13T21:05:49.988Z,6.07
2017-08-13T21:08:17.611Z,4.55
2017-08-13T21:10:45.268Z,4.35
2017-08-13T21:13:12.909Z,4.75
2017-08-13T21:15:40.545Z,5.68
2017-08-13T21:18:08.203Z,5.20
2017-08-13T21:20:35.825Z,4.93
2017-08-13T21:23:03.480Z,3.85
2017-08-13T21:25:31.113Z,4.97
2017-08-13T21:27:58.745Z,5.25
2017-08-13T21:30:26.408Z,5.12
2017-08-13T21:32:54.027Z,4.57
2017-08-13T21:35:21.693Z,4.20
2017-08-13T21:37:49.328Z,4.50
2017-08-13T21:40:16.961Z,4.70
2017-08-13T21:42:45.389Z,6.43
2017-08-13T21:45:13.053Z,5.78
2017-08-13T21:47:41.480Z,5.22
2017-08-13T21:50:09.118Z,4.70
2017-08-13T21:52:36.747Z,5.47
2017-08-13T21:55:04.413Z,5.05
2017-08-13T21:57:32.039Z,5.85
2017-08-13T21:59:59.713Z,4.47
2017-08-13T22:02:27.339Z,5.70
2017-08-13T22:04:54.965Z,4.12
2017-08-13T22:07:22.638Z,5.45
2017-08-13T22:09:50.272Z,5.12
2017-08-13T22:12:17.969Z,4.70
2017-08-13T22:14:45.626Z,6.05
2017-08-13T22:17:13.260Z,4.65
2017-08-13T22:19:40.932Z,5.00
2017-08-13T22:22:09.325Z,4.00
2017-08-13T22:24:36.989Z,5.22
2017-08-13T22:27:04.685Z,5.20
2017-08-13T22:29:32.310Z,5.37
2017-08-13T22:31:59.972Z,5.70
2017-08-13T22:34:27.612Z,4.60
2017-08-13T22:36:55.274Z,5.40
2017-08-13T22:39:23.671Z,5.87
2017-08-13T22:41:51.309Z,5.50
2017-08-13T22:44:18.982Z,4.50
2017-08-13T22:46:46.630Z,4.65
2017-08-13T22:49:14.293Z,5.50
2017-08-13T22:51:41.936Z,3.95
2017-08-13T22:54:09.575Z,6.78
2017-08-13T22:56:37.227Z,5.85
2017-08-13T22:59:04.908Z,5.87
2017-08-13T23:01:32.568Z,5.00
2017-08-13T23:04:00.973Z,5.80
2017-08-13T23:06:28.603Z,5.10
2017-08-13T23:08:56.261Z,5.10
2017-08-13T23:11:23.898Z,5.43
2017-08-13T23:13:51.577Z,5.75
2017-08-13T23:16:19.203Z,4.45
2017-08-13T23:18:46.849Z,5.25
2017-08-13T23:21:14.532Z,4.80
2017-08-13T23:23:42.190Z,5.35
2017-08-13T23:26:09.854Z,4.65
2017-08-13T23:28:38.245Z,4.43
2017-08-13T23:31:05.892Z,5.65
2017-08-13T23:33:33.560Z,4.72
2017-08-13T23:36:01.187Z,5.53
2017-08-13T23:38:28.862Z,6.35
2017-08-13T23:40:56.491Z,5.72
2017-08-13T23:43:24.111Z,5.00
2017-08-13T23:45:51.786Z,5.00
2017-08-13T23:48:19.432Z,5.93
2017-08-13T23:50:47.098Z,5.45
2017-08-13T23:53:14.737Z,5.70
2017-08-13T23:55:42.377Z,4.57
2017-08-13T23:58:10.045Z,5.15
